Terminal Aerodrome Forecast
Issued by NWS Sioux Falls, SD

Home | Current Version | Previous Version | Text Only | Print | Product List | Glossary On
Versions: 1 2 3 4 5 6 7 8 9 10 11 12 13 14 15 16 17
000
FTUS43 KFSD 240526
TAFFSD
TAF
KFSD 240526Z 2406/2506 23016G24KT P6SM SCT120
     FM240800 28013G19KT P6SM SCT025
     FM241500 32018G27KT P6SM BKN025
     FM250000 34007KT P6SM SCT025
     FM250300 02004KT P6SM OVC060=

USA.gov is the U.S. government's official web portal to all federal, state and local government web resources and services.